sensor_id;sensor_type;location;lat;lon;timestamp;P1;durP1;ratioP1;P2;durP2;ratioP2
17147;SDS011;8689;47.364;8.796;2023-07-13T00:02:08;9.00;;;5.00;;
17147;SDS011;8689;47.364;8.796;2023-07-13T00:04:35;8.73;;;5.07;;
17147;SDS011;8689;47.364;8.796;2023-07-13T00:07:03;8.90;;;5.03;;
17147;SDS011;8689;47.364;8.796;2023-07-13T00:09:31;8.33;;;5.83;;
17147;SDS011;8689;47.364;8.796;2023-07-13T00:11:58;8.27;;;5.03;;
17147;SDS011;8689;47.364;8.796;2023-07-13T00:14:26;9.77;;;5.77;;
17147;SDS011;8689;47.364;8.796;2023-07-13T00:16:57;8.67;;;5.13;;
17147;SDS011;8689;47.364;8.796;2023-07-13T00:19:25;10.30;;;5.03;;
17147;SDS011;8689;47.364;8.796;2023-07-13T00:21:53;7.20;;;5.53;;
17147;SDS011;8689;47.364;8.796;2023-07-13T00:24:20;10.97;;;5.60;;
17147;SDS011;8689;47.364;8.796;2023-07-13T00:26:49;10.80;;;5.07;;
17147;SDS011;8689;47.364;8.796;2023-07-13T00:29:16;8.80;;;5.00;;
17147;SDS011;8689;47.364;8.796;2023-07-13T00:31:43;10.00;;;5.37;;
17147;SDS011;8689;47.364;8.796;2023-07-13T00:34:12;9.13;;;5.40;;
17147;SDS011;8689;47.364;8.796;2023-07-13T00:36:40;7.43;;;5.10;;
17147;SDS011;8689;47.364;8.796;2023-07-13T00:39:06;12.00;;;5.40;;
17147;SDS011;8689;47.364;8.796;2023-07-13T00:41:34;9.23;;;5.17;;
17147;SDS011;8689;47.364;8.796;2023-07-13T00:44:02;10.10;;;5.10;;
17147;SDS011;8689;47.364;8.796;2023-07-13T00:46:30;12.30;;;5.93;;
17147;SDS011;8689;47.364;8.796;2023-07-13T00:48:59;6.33;;;4.77;;
17147;SDS011;8689;47.364;8.796;2023-07-13T00:51:34;11.07;;;6.20;;
17147;SDS011;8689;47.364;8.796;2023-07-13T00:54:07;12.70;;;5.87;;
17147;SDS011;8689;47.364;8.796;2023-07-13T00:56:39;10.00;;;5.60;;
17147;SDS011;8689;47.364;8.796;2023-07-13T00:59:10;6.50;;;5.30;;
17147;SDS011;8689;47.364;8.796;2023-07-13T01:01:40;12.23;;;4.83;;
17147;SDS011;8689;47.364;8.796;2023-07-13T01:04:07;10.17;;;5.90;;
17147;SDS011;8689;47.364;8.796;2023-07-13T01:06:36;9.40;;;5.17;;
17147;SDS011;8689;47.364;8.796;2023-07-13T01:09:06;9.60;;;5.43;;
17147;SDS011;8689;47.364;8.796;2023-07-13T01:11:35;9.70;;;5.70;;
17147;SDS011;8689;47.364;8.796;2023-07-13T01:14:03;8.83;;;5.23;;
17147;SDS011;8689;47.364;8.796;2023-07-13T01:16:33;9.23;;;5.20;;
17147;SDS011;8689;47.364;8.796;2023-07-13T01:19:03;11.20;;;4.70;;
17147;SDS011;8689;47.364;8.796;2023-07-13T01:21:38;9.67;;;4.47;;
17147;SDS011;8689;47.364;8.796;2023-07-13T01:24:08;10.60;;;4.93;;
17147;SDS011;8689;47.364;8.796;2023-07-13T01:26:35;4.80;;;4.30;;
17147;SDS011;8689;47.364;8.796;2023-07-13T01:29:03;8.60;;;5.07;;
17147;SDS011;8689;47.364;8.796;2023-07-13T01:31:30;6.27;;;5.23;;
17147;SDS011;8689;47.364;8.796;2023-07-13T01:33:58;9.30;;;5.23;;
17147;SDS011;8689;47.364;8.796;2023-07-13T01:36:25;10.07;;;5.60;;
17147;SDS011;8689;47.364;8.796;2023-07-13T01:38:55;5.73;;;5.03;;
17147;SDS011;8689;47.364;8.796;2023-07-13T01:41:22;8.07;;;5.23;;
17147;SDS011;8689;47.364;8.796;2023-07-13T01:43:50;7.67;;;4.53;;
17147;SDS011;8689;47.364;8.796;2023-07-13T01:46:17;7.33;;;4.93;;
17147;SDS011;8689;47.364;8.796;2023-07-13T01:48:45;8.57;;;5.03;;
17147;SDS011;8689;47.364;8.796;2023-07-13T01:51:13;7.07;;;5.60;;
17147;SDS011;8689;47.364;8.796;2023-07-13T01:53:42;7.10;;;5.47;;
17147;SDS011;8689;47.364;8.796;2023-07-13T01:56:11;7.53;;;4.57;;
17147;SDS011;8689;47.364;8.796;2023-07-13T01:58:38;7.97;;;5.40;;
17147;SDS011;8689;47.364;8.796;2023-07-13T02:01:06;6.97;;;5.70;;
17147;SDS011;8689;47.364;8.796;2023-07-13T02:03:35;6.93;;;4.83;;
17147;SDS011;8689;47.364;8.796;2023-07-13T02:06:03;8.60;;;5.47;;
17147;SDS011;8689;47.364;8.796;2023-07-13T02:08:32;10.60;;;5.30;;
17147;SDS011;8689;47.364;8.796;2023-07-13T02:10:59;8.43;;;5.03;;
17147;SDS011;8689;47.364;8.796;2023-07-13T02:13:28;7.80;;;5.13;;
17147;SDS011;8689;47.364;8.796;2023-07-13T02:15:56;11.70;;;4.87;;
17147;SDS011;8689;47.364;8.796;2023-07-13T02:18:24;8.53;;;5.67;;
17147;SDS011;8689;47.364;8.796;2023-07-13T02:20:51;15.87;;;5.03;;
17147;SDS011;8689;47.364;8.796;2023-07-13T02:23:20;7.30;;;5.03;;
17147;SDS011;8689;47.364;8.796;2023-07-13T02:25:49;15.93;;;6.13;;
17147;SDS011;8689;47.364;8.796;2023-07-13T02:28:21;14.40;;;5.53;;
17147;SDS011;8689;47.364;8.796;2023-07-13T02:30:50;10.37;;;5.37;;
17147;SDS011;8689;47.364;8.796;2023-07-13T02:33:18;7.97;;;5.20;;
17147;SDS011;8689;47.364;8.796;2023-07-13T02:35:45;17.50;;;5.37;;
17147;SDS011;8689;47.364;8.796;2023-07-13T02:38:12;7.47;;;5.20;;
17147;SDS011;8689;47.364;8.796;2023-07-13T02:40:39;7.93;;;5.10;;
17147;SDS011;8689;47.364;8.796;2023-07-13T02:43:07;8.60;;;5.33;;
17147;SDS011;8689;47.364;8.796;2023-07-13T02:45:35;9.87;;;5.73;;
17147;SDS011;8689;47.364;8.796;2023-07-13T02:48:05;7.47;;;5.00;;
17147;SDS011;8689;47.364;8.796;2023-07-13T02:50:33;9.30;;;5.47;;
17147;SDS011;8689;47.364;8.796;2023-07-13T02:53:00;9.47;;;5.47;;
17147;SDS011;8689;47.364;8.796;2023-07-13T02:55:28;6.70;;;4.83;;
17147;SDS011;8689;47.364;8.796;2023-07-13T02:57:56;10.93;;;5.43;;
17147;SDS011;8689;47.364;8.796;2023-07-13T03:00:23;11.53;;;5.40;;
17147;SDS011;8689;47.364;8.796;2023-07-13T03:02:51;9.63;;;5.33;;
17147;SDS011;8689;47.364;8.796;2023-07-13T03:05:24;12.37;;;6.30;;
17147;SDS011;8689;47.364;8.796;2023-07-13T03:07:51;12.77;;;5.37;;
17147;SDS011;8689;47.364;8.796;2023-07-13T03:10:19;10.67;;;4.93;;
17147;SDS011;8689;47.364;8.796;2023-07-13T03:12:47;9.93;;;4.53;;
17147;SDS011;8689;47.364;8.796;2023-07-13T03:15:14;9.77;;;5.23;;
17147;SDS011;8689;47.364;8.796;2023-07-13T03:17:42;10.50;;;5.00;;
17147;SDS011;8689;47.364;8.796;2023-07-13T03:20:10;9.40;;;5.77;;
17147;SDS011;8689;47.364;8.796;2023-07-13T03:22:39;16.53;;;5.83;;
17147;SDS011;8689;47.364;8.796;2023-07-13T03:25:07;6.50;;;4.90;;
17147;SDS011;8689;47.364;8.796;2023-07-13T03:27:36;9.93;;;4.80;;
17147;SDS011;8689;47.364;8.796;2023-07-13T03:30:04;9.30;;;5.03;;
17147;SDS011;8689;47.364;8.796;2023-07-13T03:32:33;10.43;;;5.20;;
17147;SDS011;8689;47.364;8.796;2023-07-13T03:35:00;14.13;;;5.47;;
17147;SDS011;8689;47.364;8.796;2023-07-13T03:37:28;9.50;;;5.20;;
17147;SDS011;8689;47.364;8.796;2023-07-13T03:39:57;7.53;;;5.10;;
17147;SDS011;8689;47.364;8.796;2023-07-13T03:42:24;16.90;;;6.07;;
17147;SDS011;8689;47.364;8.796;2023-07-13T03:44:52;7.47;;;5.40;;
17147;SDS011;8689;47.364;8.796;2023-07-13T03:47:19;8.50;;;5.30;;
17147;SDS011;8689;47.364;8.796;2023-07-13T03:49:46;8.97;;;5.23;;
17147;SDS011;8689;47.364;8.796;2023-07-13T03:52:13;8.07;;;5.07;;
17147;SDS011;8689;47.364;8.796;2023-07-13T03:54:41;10.33;;;5.00;;
17147;SDS011;8689;47.364;8.796;2023-07-13T03:57:10;10.10;;;5.30;;
17147;SDS011;8689;47.364;8.796;2023-07-13T03:59:37;6.30;;;4.60;;
17147;SDS011;8689;47.364;8.796;2023-07-13T04:02:05;7.77;;;4.27;;
17147;SDS011;8689;47.364;8.796;2023-07-13T04:04:32;6.73;;;4.53;;
17147;SDS011;8689;47.364;8.796;2023-07-13T04:07:00;5.00;;;4.50;;
17147;SDS011;8689;47.364;8.796;2023-07-13T04:09:28;4.90;;;4.40;;
17147;SDS011;8689;47.364;8.796;2023-07-13T04:11:55;7.27;;;5.07;;
17147;SDS011;8689;47.364;8.796;2023-07-13T04:14:25;7.77;;;4.60;;
17147;SDS011;8689;47.364;8.796;2023-07-13T04:16:52;7.73;;;4.27;;
17147;SDS011;8689;47.364;8.796;2023-07-13T04:19:20;7.17;;;4.77;;
17147;SDS011;8689;47.364;8.796;2023-07-13T04:21:47;6.37;;;4.50;;
17147;SDS011;8689;47.364;8.796;2023-07-13T04:24:14;7.97;;;5.00;;
17147;SDS011;8689;47.364;8.796;2023-07-13T04:26:41;5.50;;;4.37;;
17147;SDS011;8689;47.364;8.796;2023-07-13T04:29:09;6.20;;;4.50;;
17147;SDS011;8689;47.364;8.796;2023-07-13T04:31:38;7.57;;;4.60;;
17147;SDS011;8689;47.364;8.796;2023-07-13T04:34:06;10.53;;;4.93;;
17147;SDS011;8689;47.364;8.796;2023-07-13T04:36:34;7.60;;;4.93;;
17147;SDS011;8689;47.364;8.796;2023-07-13T04:39:02;8.77;;;5.03;;
17147;SDS011;8689;47.364;8.796;2023-07-13T04:41:30;14.20;;;5.00;;
17147;SDS011;8689;47.364;8.796;2023-07-13T04:43:58;7.67;;;5.03;;
17147;SDS011;8689;47.364;8.796;2023-07-13T04:46:31;6.03;;;4.57;;
17147;SDS011;8689;47.364;8.796;2023-07-13T04:49:00;6.13;;;4.83;;
17147;SDS011;8689;47.364;8.796;2023-07-13T04:51:29;7.63;;;4.87;;
17147;SDS011;8689;47.364;8.796;2023-07-13T04:53:56;6.43;;;4.27;;
17147;SDS011;8689;47.364;8.796;2023-07-13T04:59:04;6.17;;;5.00;;
17147;SDS011;8689;47.364;8.796;2023-07-13T05:01:31;6.87;;;4.77;;
17147;SDS011;8689;47.364;8.796;2023-07-13T05:03:59;6.63;;;4.87;;
17147;SDS011;8689;47.364;8.796;2023-07-13T05:06:26;6.53;;;4.50;;
17147;SDS011;8689;47.364;8.796;2023-07-13T05:08:55;9.57;;;4.80;;
17147;SDS011;8689;47.364;8.796;2023-07-13T05:11:23;7.57;;;4.70;;
17147;SDS011;8689;47.364;8.796;2023-07-13T05:13:51;9.67;;;4.63;;
17147;SDS011;8689;47.364;8.796;2023-07-13T05:16:18;6.17;;;5.17;;
17147;SDS011;8689;47.364;8.796;2023-07-13T05:18:46;7.33;;;4.47;;
17147;SDS011;8689;47.364;8.796;2023-07-13T05:21:16;9.10;;;5.47;;
17147;SDS011;8689;47.364;8.796;2023-07-13T05:23:43;7.93;;;4.53;;
17147;SDS011;8689;47.364;8.796;2023-07-13T05:26:11;7.07;;;5.50;;
17147;SDS011;8689;47.364;8.796;2023-07-13T05:28:38;8.73;;;5.30;;
17147;SDS011;8689;47.364;8.796;2023-07-13T05:31:07;7.13;;;4.40;;
17147;SDS011;8689;47.364;8.796;2023-07-13T05:33:35;11.20;;;4.77;;
17147;SDS011;8689;47.364;8.796;2023-07-13T05:36:20;7.47;;;4.63;;
17147;SDS011;8689;47.364;8.796;2023-07-13T05:38:50;9.00;;;4.17;;
17147;SDS011;8689;47.364;8.796;2023-07-13T05:41:19;5.60;;;4.17;;
17147;SDS011;8689;47.364;8.796;2023-07-13T05:43:47;5.90;;;5.00;;
17147;SDS011;8689;47.364;8.796;2023-07-13T05:46:18;5.77;;;4.20;;
17147;SDS011;8689;47.364;8.796;2023-07-13T05:48:47;6.07;;;4.20;;
17147;SDS011;8689;47.364;8.796;2023-07-13T05:51:14;5.23;;;3.77;;
17147;SDS011;8689;47.364;8.796;2023-07-13T05:53:44;5.80;;;4.67;;
17147;SDS011;8689;47.364;8.796;2023-07-13T05:56:12;4.10;;;3.70;;
17147;SDS011;8689;47.364;8.796;2023-07-13T05:58:39;6.03;;;4.47;;
17147;SDS011;8689;47.364;8.796;2023-07-13T06:01:09;5.97;;;4.80;;
17147;SDS011;8689;47.364;8.796;2023-07-13T06:03:38;8.50;;;4.27;;
17147;SDS011;8689;47.364;8.796;2023-07-13T06:06:07;8.73;;;5.03;;
17147;SDS011;8689;47.364;8.796;2023-07-13T06:08:35;11.83;;;5.07;;
17147;SDS011;8689;47.364;8.796;2023-07-13T06:11:05;5.50;;;4.23;;
17147;SDS011;8689;47.364;8.796;2023-07-13T06:13:34;6.73;;;4.60;;
17147;SDS011;8689;47.364;8.796;2023-07-13T06:16:01;6.10;;;4.53;;
17147;SDS011;8689;47.364;8.796;2023-07-13T06:18:31;6.53;;;4.60;;
17147;SDS011;8689;47.364;8.796;2023-07-13T06:20:58;6.20;;;4.80;;
17147;SDS011;8689;47.364;8.796;2023-07-13T06:23:26;6.20;;;4.23;;
17147;SDS011;8689;47.364;8.796;2023-07-13T06:25:53;11.33;;;5.33;;
17147;SDS011;8689;47.364;8.796;2023-07-13T06:28:23;7.83;;;5.33;;
17147;SDS011;8689;47.364;8.796;2023-07-13T06:30:50;7.23;;;5.20;;
17147;SDS011;8689;47.364;8.796;2023-07-13T06:33:17;7.17;;;4.63;;
17147;SDS011;8689;47.364;8.796;2023-07-13T06:35:44;6.37;;;4.83;;
17147;SDS011;8689;47.364;8.796;2023-07-13T06:38:12;9.93;;;5.17;;
17147;SDS011;8689;47.364;8.796;2023-07-13T06:40:39;8.90;;;4.90;;
17147;SDS011;8689;47.364;8.796;2023-07-13T06:43:06;9.20;;;5.20;;
17147;SDS011;8689;47.364;8.796;2023-07-13T06:45:40;8.37;;;5.67;;
17147;SDS011;8689;47.364;8.796;2023-07-13T06:48:10;9.83;;;5.37;;
17147;SDS011;8689;47.364;8.796;2023-07-13T06:50:37;12.70;;;6.23;;
17147;SDS011;8689;47.364;8.796;2023-07-13T06:53:04;10.30;;;5.87;;
17147;SDS011;8689;47.364;8.796;2023-07-13T06:55:32;8.90;;;6.00;;
17147;SDS011;8689;47.364;8.796;2023-07-13T06:57:59;12.33;;;6.87;;
17147;SDS011;8689;47.364;8.796;2023-07-13T07:00:27;11.07;;;8.00;;
17147;SDS011;8689;47.364;8.796;2023-07-13T07:02:56;9.80;;;7.10;;
17147;SDS011;8689;47.364;8.796;2023-07-13T07:05:23;13.27;;;7.50;;
17147;SDS011;8689;47.364;8.796;2023-07-13T07:07:51;10.27;;;6.73;;
17147;SDS011;8689;47.364;8.796;2023-07-13T07:10:20;13.93;;;6.70;;
17147;SDS011;8689;47.364;8.796;2023-07-13T07:12:48;13.03;;;6.77;;
17147;SDS011;8689;47.364;8.796;2023-07-13T07:15:16;8.93;;;6.27;;
17147;SDS011;8689;47.364;8.796;2023-07-13T07:17:44;11.87;;;5.90;;
17147;SDS011;8689;47.364;8.796;2023-07-13T07:20:13;7.47;;;5.20;;
17147;SDS011;8689;47.364;8.796;2023-07-13T07:22:41;10.33;;;6.97;;
17147;SDS011;8689;47.364;8.796;2023-07-13T07:25:08;13.90;;;5.67;;
17147;SDS011;8689;47.364;8.796;2023-07-13T07:27:37;8.10;;;5.27;;
17147;SDS011;8689;47.364;8.796;2023-07-13T07:30:06;8.67;;;5.47;;
17147;SDS011;8689;47.364;8.796;2023-07-13T07:32:34;8.40;;;3.43;;
17147;SDS011;8689;47.364;8.796;2023-07-13T07:35:01;4.23;;;3.83;;
17147;SDS011;8689;47.364;8.796;2023-07-13T07:37:31;4.70;;;4.17;;
17147;SDS011;8689;47.364;8.796;2023-07-13T07:40:00;4.53;;;3.80;;
17147;SDS011;8689;47.364;8.796;2023-07-13T07:42:28;4.57;;;3.87;;
17147;SDS011;8689;47.364;8.796;2023-07-13T07:44:58;8.00;;;3.97;;
17147;SDS011;8689;47.364;8.796;2023-07-13T07:47:26;4.93;;;3.93;;
17147;SDS011;8689;47.364;8.796;2023-07-13T07:49:53;8.93;;;4.13;;
17147;SDS011;8689;47.364;8.796;2023-07-13T07:52:21;4.63;;;4.17;;
17147;SDS011;8689;47.364;8.796;2023-07-13T07:54:50;4.80;;;3.17;;
17147;SDS011;8689;47.364;8.796;2023-07-13T07:57:18;3.37;;;2.60;;
17147;SDS011;8689;47.364;8.796;2023-07-13T07:59:45;3.07;;;2.80;;
17147;SDS011;8689;47.364;8.796;2023-07-13T08:02:13;2.57;;;2.07;;
17147;SDS011;8689;47.364;8.796;2023-07-13T08:04:41;3.63;;;2.43;;
17147;SDS011;8689;47.364;8.796;2023-07-13T08:07:09;3.73;;;3.03;;
17147;SDS011;8689;47.364;8.796;2023-07-13T08:09:36;4.43;;;2.80;;
17147;SDS011;8689;47.364;8.796;2023-07-13T08:12:07;4.67;;;2.40;;
17147;SDS011;8689;47.364;8.796;2023-07-13T08:14:36;3.60;;;2.87;;
17147;SDS011;8689;47.364;8.796;2023-07-13T08:17:03;5.57;;;2.07;;
17147;SDS011;8689;47.364;8.796;2023-07-13T08:19:33;3.93;;;2.47;;
17147;SDS011;8689;47.364;8.796;2023-07-13T08:22:00;5.60;;;2.60;;
17147;SDS011;8689;47.364;8.796;2023-07-13T08:24:27;2.70;;;1.97;;
17147;SDS011;8689;47.364;8.796;2023-07-13T08:26:55;2.80;;;2.17;;
17147;SDS011;8689;47.364;8.796;2023-07-13T08:29:24;3.10;;;2.30;;
17147;SDS011;8689;47.364;8.796;2023-07-13T08:31:52;2.53;;;2.33;;
17147;SDS011;8689;47.364;8.796;2023-07-13T08:34:19;2.93;;;2.40;;
17147;SDS011;8689;47.364;8.796;2023-07-13T08:37:01;2.53;;;1.80;;
17147;SDS011;8689;47.364;8.796;2023-07-13T08:39:30;2.53;;;1.93;;
17147;SDS011;8689;47.364;8.796;2023-07-13T08:42:00;6.40;;;2.00;;
17147;SDS011;8689;47.364;8.796;2023-07-13T08:44:35;3.07;;;2.53;;
17147;SDS011;8689;47.364;8.796;2023-07-13T08:47:10;2.33;;;1.80;;
17147;SDS011;8689;47.364;8.796;2023-07-13T08:49:41;3.00;;;1.73;;
17147;SDS011;8689;47.364;8.796;2023-07-13T08:52:11;2.47;;;1.90;;
17147;SDS011;8689;47.364;8.796;2023-07-13T08:54:44;3.50;;;2.50;;
17147;SDS011;8689;47.364;8.796;2023-07-13T08:57:16;1.50;;;1.40;;
17147;SDS011;8689;47.364;8.796;2023-07-13T08:59:47;1.80;;;1.40;;
17147;SDS011;8689;47.364;8.796;2023-07-13T09:02:24;2.28;;;1.55;;
17147;SDS011;8689;47.364;8.796;2023-07-13T09:04:56;1.65;;;1.40;;
17147;SDS011;8689;47.364;8.796;2023-07-13T09:07:34;4.90;;;1.73;;
17147;SDS011;8689;47.364;8.796;2023-07-13T09:10:12;1.63;;;1.42;;
17147;SDS011;8689;47.364;8.796;2023-07-13T09:12:45;2.53;;;1.38;;
17147;SDS011;8689;47.364;8.796;2023-07-13T09:15:31;1.52;;;1.25;;
17147;SDS011;8689;47.364;8.796;2023-07-13T09:18:03;1.80;;;1.30;;
17147;SDS011;8689;47.364;8.796;2023-07-13T09:20:35;2.10;;;1.30;;
17147;SDS011;8689;47.364;8.796;2023-07-13T09:23:09;3.08;;;1.40;;
17147;SDS011;8689;47.364;8.796;2023-07-13T09:25:40;4.93;;;1.10;;
17147;SDS011;8689;47.364;8.796;2023-07-13T09:28:14;2.03;;;1.15;;
17147;SDS011;8689;47.364;8.796;2023-07-13T09:30:49;1.50;;;1.20;;
17147;SDS011;8689;47.364;8.796;2023-07-13T09:33:21;1.40;;;1.13;;
17147;SDS011;8689;47.364;8.796;2023-07-13T09:35:49;2.15;;;1.13;;
17147;SDS011;8689;47.364;8.796;2023-07-13T09:38:17;3.05;;;1.60;;
17147;SDS011;8689;47.364;8.796;2023-07-13T09:40:59;1.95;;;1.58;;
17147;SDS011;8689;47.364;8.796;2023-07-13T09:43:38;1.30;;;1.13;;
17147;SDS011;8689;47.364;8.796;2023-07-13T09:46:12;1.85;;;1.30;;
17147;SDS011;8689;47.364;8.796;2023-07-13T09:48:47;1.75;;;1.52;;
17147;SDS011;8689;47.364;8.796;2023-07-13T09:51:15;2.88;;;1.30;;
17147;SDS011;8689;47.364;8.796;2023-07-13T09:53:43;1.50;;;1.40;;
17147;SDS011;8689;47.364;8.796;2023-07-13T09:56:19;4.63;;;1.88;;
17147;SDS011;8689;47.364;8.796;2023-07-13T09:58:47;1.58;;;1.45;;
17147;SDS011;8689;47.364;8.796;2023-07-13T10:01:17;3.95;;;1.60;;
17147;SDS011;8689;47.364;8.796;2023-07-13T10:06:44;1.80;;;1.40;;
17147;SDS011;8689;47.364;8.796;2023-07-13T10:09:15;1.73;;;1.63;;
17147;SDS011;8689;47.364;8.796;2023-07-13T10:11:44;1.37;;;1.27;;
17147;SDS011;8689;47.364;8.796;2023-07-13T10:14:13;4.93;;;1.40;;
17147;SDS011;8689;47.364;8.796;2023-07-13T10:16:44;2.30;;;1.75;;
17147;SDS011;8689;47.364;8.796;2023-07-13T10:19:15;1.83;;;1.50;;
17147;SDS011;8689;47.364;8.796;2023-07-13T10:21:50;2.30;;;1.70;;
17147;SDS011;8689;47.364;8.796;2023-07-13T10:24:25;1.30;;;1.20;;
17147;SDS011;8689;47.364;8.796;2023-07-13T10:26:56;2.75;;;1.65;;
17147;SDS011;8689;47.364;8.796;2023-07-13T10:29:32;3.45;;;1.70;;
17147;SDS011;8689;47.364;8.796;2023-07-13T10:32:06;2.35;;;1.73;;
17147;SDS011;8689;47.364;8.796;2023-07-13T10:34:36;3.83;;;2.05;;
17147;SDS011;8689;47.364;8.796;2023-07-13T10:37:04;1.52;;;1.17;;
17147;SDS011;8689;47.364;8.796;2023-07-13T10:39:34;1.80;;;1.70;;
17147;SDS011;8689;47.364;8.796;2023-07-13T10:42:11;1.60;;;1.30;;
17147;SDS011;8689;47.364;8.796;2023-07-13T10:44:45;1.52;;;1.17;;
17147;SDS011;8689;47.364;8.796;2023-07-13T10:47:15;8.43;;;1.23;;
17147;SDS011;8689;47.364;8.796;2023-07-13T10:49:44;1.73;;;1.27;;
17147;SDS011;8689;47.364;8.796;2023-07-13T10:58:01;2.40;;;1.77;;
17147;SDS011;8689;47.364;8.796;2023-07-13T11:00:32;1.77;;;1.50;;
17147;SDS011;8689;47.364;8.796;2023-07-13T11:03:12;1.67;;;1.33;;
17147;SDS011;8689;47.364;8.796;2023-07-13T11:05:42;1.52;;;1.30;;
17147;SDS011;8689;47.364;8.796;2023-07-13T11:08:16;3.72;;;1.60;;
17147;SDS011;8689;47.364;8.796;2023-07-13T11:10:49;1.15;;;1.05;;
17147;SDS011;8689;47.364;8.796;2023-07-13T11:13:36;2.58;;;1.30;;
17147;SDS011;8689;47.364;8.796;2023-07-13T11:16:34;1.27;;;1.15;;
17147;SDS011;8689;47.364;8.796;2023-07-13T11:22:22;2.25;;;1.33;;
17147;SDS011;8689;47.364;8.796;2023-07-13T11:25:20;1.58;;;1.15;;
17147;SDS011;8689;47.364;8.796;2023-07-13T11:28:04;1.48;;;1.38;;
17147;SDS011;8689;47.364;8.796;2023-07-13T11:30:36;1.85;;;1.30;;
17147;SDS011;8689;47.364;8.796;2023-07-13T11:33:11;2.60;;;1.40;;
17147;SDS011;8689;47.364;8.796;2023-07-13T11:35:46;1.75;;;1.02;;
17147;SDS011;8689;47.364;8.796;2023-07-13T11:38:20;1.20;;;1.10;;
17147;SDS011;8689;47.364;8.796;2023-07-13T11:40:51;1.73;;;1.08;;
17147;SDS011;8689;47.364;8.796;2023-07-13T11:43:36;1.48;;;1.10;;
17147;SDS011;8689;47.364;8.796;2023-07-13T11:46:15;0.80;;;0.80;;
17147;SDS011;8689;47.364;8.796;2023-07-13T11:48:46;1.27;;;1.00;;
17147;SDS011;8689;47.364;8.796;2023-07-13T11:51:19;2.38;;;1.30;;
17147;SDS011;8689;47.364;8.796;2023-07-13T11:53:50;1.73;;;0.98;;
17147;SDS011;8689;47.364;8.796;2023-07-13T11:56:26;1.35;;;1.08;;
17147;SDS011;8689;47.364;8.796;2023-07-13T11:59:12;1.02;;;0.90;;
17147;SDS011;8689;47.364;8.796;2023-07-13T12:01:55;2.08;;;1.08;;
17147;SDS011;8689;47.364;8.796;2023-07-13T12:04:35;1.10;;;0.88;;
17147;SDS011;8689;47.364;8.796;2023-07-13T12:07:06;1.85;;;1.02;;
17147;SDS011;8689;47.364;8.796;2023-07-13T12:09:44;1.85;;;1.10;;
17147;SDS011;8689;47.364;8.796;2023-07-13T12:12:17;4.53;;;0.85;;
17147;SDS011;8689;47.364;8.796;2023-07-13T12:14:45;2.20;;;1.10;;
17147;SDS011;8689;47.364;8.796;2023-07-13T12:17:24;2.08;;;0.90;;
17147;SDS011;8689;47.364;8.796;2023-07-13T12:20:12;3.13;;;1.15;;
17147;SDS011;8689;47.364;8.796;2023-07-13T12:22:48;1.88;;;1.10;;
17147;SDS011;8689;47.364;8.796;2023-07-13T12:25:19;1.30;;;1.20;;
17147;SDS011;8689;47.364;8.796;2023-07-13T12:27:48;4.30;;;1.23;;
17147;SDS011;8689;47.364;8.796;2023-07-13T12:30:24;2.58;;;0.80;;
17147;SDS011;8689;47.364;8.796;2023-07-13T12:32:56;2.45;;;1.25;;
17147;SDS011;8689;47.364;8.796;2023-07-13T12:35:26;1.52;;;0.90;;
17147;SDS011;8689;47.364;8.796;2023-07-13T12:38:02;2.17;;;1.10;;
17147;SDS011;8689;47.364;8.796;2023-07-13T12:40:31;3.80;;;1.23;;
17147;SDS011;8689;47.364;8.796;2023-07-13T12:43:02;2.15;;;1.15;;
17147;SDS011;8689;47.364;8.796;2023-07-13T12:45:32;2.25;;;1.08;;
17147;SDS011;8689;47.364;8.796;2023-07-13T12:48:03;1.48;;;0.90;;
17147;SDS011;8689;47.364;8.796;2023-07-13T12:50:36;1.52;;;1.05;;
17147;SDS011;8689;47.364;8.796;2023-07-13T12:53:09;1.45;;;1.10;;
17147;SDS011;8689;47.364;8.796;2023-07-13T12:55:41;1.70;;;1.20;;
17147;SDS011;8689;47.364;8.796;2023-07-13T12:58:13;1.63;;;1.20;;
17147;SDS011;8689;47.364;8.796;2023-07-13T13:00:48;1.40;;;1.13;;
17147;SDS011;8689;47.364;8.796;2023-07-13T13:03:24;3.05;;;1.20;;
17147;SDS011;8689;47.364;8.796;2023-07-13T13:06:02;1.58;;;0.73;;
17147;SDS011;8689;47.364;8.796;2023-07-13T13:08:32;2.38;;;1.15;;
17147;SDS011;8689;47.364;8.796;2023-07-13T13:11:00;2.80;;;0.73;;
17147;SDS011;8689;47.364;8.796;2023-07-13T13:13:29;1.95;;;1.10;;
17147;SDS011;8689;47.364;8.796;2023-07-13T13:16:01;5.13;;;0.90;;
17147;SDS011;8689;47.364;8.796;2023-07-13T13:18:31;1.30;;;0.90;;
17147;SDS011;8689;47.364;8.796;2023-07-13T13:20:58;2.53;;;1.00;;
17147;SDS011;8689;47.364;8.796;2023-07-13T13:23:49;1.25;;;1.08;;
17147;SDS011;8689;47.364;8.796;2023-07-13T13:26:17;3.67;;;1.30;;
17147;SDS011;8689;47.364;8.796;2023-07-13T13:28:45;1.60;;;1.17;;
17147;SDS011;8689;47.364;8.796;2023-07-13T13:31:14;1.67;;;1.00;;
17147;SDS011;8689;47.364;8.796;2023-07-13T13:33:42;1.42;;;0.88;;
17147;SDS011;8689;47.364;8.796;2023-07-13T13:36:13;1.67;;;1.10;;
17147;SDS011;8689;47.364;8.796;2023-07-13T13:38:44;1.58;;;1.20;;
17147;SDS011;8689;47.364;8.796;2023-07-13T13:41:14;1.95;;;1.17;;
17147;SDS011;8689;47.364;8.796;2023-07-13T13:43:42;2.10;;;0.90;;
17147;SDS011;8689;47.364;8.796;2023-07-13T13:46:15;2.42;;;1.05;;
17147;SDS011;8689;47.364;8.796;2023-07-13T13:48:44;10.05;;;3.25;;
17147;SDS011;8689;47.364;8.796;2023-07-13T13:51:13;3.95;;;1.80;;
17147;SDS011;8689;47.364;8.796;2023-07-13T13:53:44;2.42;;;1.60;;
17147;SDS011;8689;47.364;8.796;2023-07-13T13:56:11;2.58;;;1.58;;
17147;SDS011;8689;47.364;8.796;2023-07-13T13:58:39;1.38;;;1.27;;
17147;SDS011;8689;47.364;8.796;2023-07-13T14:01:10;1.27;;;1.17;;
17147;SDS011;8689;47.364;8.796;2023-07-13T14:03:39;2.95;;;1.85;;
17147;SDS011;8689;47.364;8.796;2023-07-13T14:06:08;2.10;;;1.50;;
17147;SDS011;8689;47.364;8.796;2023-07-13T14:08:38;2.10;;;1.10;;
17147;SDS011;8689;47.364;8.796;2023-07-13T14:11:07;2.28;;;1.38;;
17147;SDS011;8689;47.364;8.796;2023-07-13T14:13:43;3.60;;;1.23;;
17147;SDS011;8689;47.364;8.796;2023-07-13T14:16:15;1.67;;;1.10;;
17147;SDS011;8689;47.364;8.796;2023-07-13T14:18:44;2.00;;;1.33;;
17147;SDS011;8689;47.364;8.796;2023-07-13T14:21:15;1.10;;;1.00;;
17147;SDS011;8689;47.364;8.796;2023-07-13T14:23:43;3.15;;;1.70;;
17147;SDS011;8689;47.364;8.796;2023-07-13T14:26:14;1.27;;;1.17;;
17147;SDS011;8689;47.364;8.796;2023-07-13T14:28:51;1.95;;;1.25;;
17147;SDS011;8689;47.364;8.796;2023-07-13T14:31:19;2.25;;;1.10;;
17147;SDS011;8689;47.364;8.796;2023-07-13T14:33:51;2.90;;;1.08;;
17147;SDS011;8689;47.364;8.796;2023-07-13T14:36:25;5.45;;;1.08;;
17147;SDS011;8689;47.364;8.796;2023-07-13T14:38:55;1.05;;;0.80;;
17147;SDS011;8689;47.364;8.796;2023-07-13T14:41:24;3.90;;;1.13;;
17147;SDS011;8689;47.364;8.796;2023-07-13T14:43:54;2.60;;;1.30;;
17147;SDS011;8689;47.364;8.796;2023-07-13T14:46:26;1.98;;;1.30;;
17147;SDS011;8689;47.364;8.796;2023-07-13T14:48:59;1.02;;;0.93;;
17147;SDS011;8689;47.364;8.796;2023-07-13T14:51:49;1.95;;;1.45;;
17147;SDS011;8689;47.364;8.796;2023-07-13T14:54:26;3.75;;;1.20;;
17147;SDS011;8689;47.364;8.796;2023-07-13T14:57:10;3.92;;;1.27;;
17147;SDS011;8689;47.364;8.796;2023-07-13T15:02:29;3.42;;;1.08;;
17147;SDS011;8689;47.364;8.796;2023-07-13T15:04:59;2.55;;;1.17;;
17147;SDS011;8689;47.364;8.796;2023-07-13T15:07:28;2.95;;;1.30;;
17147;SDS011;8689;47.364;8.796;2023-07-13T15:10:01;3.25;;;1.23;;
17147;SDS011;8689;47.364;8.796;2023-07-13T15:12:30;3.95;;;1.30;;
17147;SDS011;8689;47.364;8.796;2023-07-13T15:14:57;4.03;;;1.35;;
17147;SDS011;8689;47.364;8.796;2023-07-13T15:17:26;2.80;;;1.73;;
17147;SDS011;8689;47.364;8.796;2023-07-13T15:20:02;1.95;;;1.50;;
17147;SDS011;8689;47.364;8.796;2023-07-13T15:22:30;3.47;;;1.33;;
17147;SDS011;8689;47.364;8.796;2023-07-13T15:24:58;6.22;;;1.65;;
17147;SDS011;8689;47.364;8.796;2023-07-13T15:27:25;2.28;;;1.65;;
17147;SDS011;8689;47.364;8.796;2023-07-13T15:29:54;2.35;;;1.77;;
17147;SDS011;8689;47.364;8.796;2023-07-13T15:32:21;4.28;;;1.67;;
17147;SDS011;8689;47.364;8.796;2023-07-13T15:34:48;1.98;;;1.65;;
17147;SDS011;8689;47.364;8.796;2023-07-13T15:37:16;2.70;;;1.60;;